Time;durP1;ratioP1;P1;durP2;ratioP2;P2;SDS_P1;SDS_P2;PMS_P1;PMS_P2;Temp;Humidity;BMP_temperature;BMP_pressure;BME280_temperature;BME280_humidity;BME280_pressure;Samples;Min_cycle;Max_cycle;Signal;HPM_P1;HPM_P2
2021/05/19 00:01:52;;;;;;;45.80;29.95;;;7.50;99.90;;;;;;4989907;28;20025;-61
2021/05/19 00:04:17;;;;;;;47.05;30.35;;;7.50;99.90;;;;;;4994727;28;20105;-62
2021/05/19 00:06:44;;;;;;;47.40;29.75;;;7.60;99.90;;;;;;4987869;28;20038;-61
2021/05/19 00:09:12;;;;;;;50.08;33.25;;;7.60;99.90;;;;;;4992797;28;20030;-60
2021/05/19 00:11:45;;;;;;;44.10;29.58;;;7.60;99.90;;;;;;4986683;28;20026;-60
2021/05/19 00:14:15;;;;;;;45.08;30.33;;;7.70;99.90;;;;;;5000934;28;20157;-61
2021/05/19 00:16:43;;;;;;;44.53;31.13;;;7.70;99.90;;;;;;4988369;28;20109;-62
2021/05/19 00:19:09;;;;;;;44.10;31.25;;;7.70;99.90;;;;;;4990327;28;20457;-62
2021/05/19 00:21:36;;;;;;;47.42;30.20;;;7.70;99.90;;;;;;4991292;28;20117;-60
2021/05/19 00:24:05;;;;;;;42.08;30.75;;;7.80;99.90;;;;;;4993785;28;20026;-61
2021/05/19 00:26:30;;;;;;;38.40;29.40;;;7.70;99.90;;;;;;4992935;28;20025;-61
2021/05/19 00:28:56;;;;;;;35.45;27.00;;;7.70;99.90;;;;;;4996186;28;20032;-61
2021/05/19 00:31:24;;;;;;;41.53;28.48;;;7.70;99.90;;;;;;4992285;28;20077;-61
2021/05/19 00:33:50;;;;;;;44.63;30.80;;;7.80;99.90;;;;;;4996440;28;20033;-62
2021/05/19 00:36:16;;;;;;;39.33;29.00;;;7.80;99.90;;;;;;4990928;28;20026;-62
2021/05/19 00:38:42;;;;;;;38.38;27.75;;;7.80;99.90;;;;;;4982146;28;20447;-62
2021/05/19 00:41:12;;;;;;;36.53;24.92;;;7.80;99.90;;;;;;4992003;28;20041;-61
2021/05/19 00:43:38;;;;;;;33.65;24.00;;;7.80;99.90;;;;;;4998687;28;20088;-62
2021/05/19 00:46:06;;;;;;;31.88;23.25;;;7.80;99.90;;;;;;4993317;28;20129;-61
2021/05/19 00:48:32;;;;;;;33.65;24.70;;;7.70;99.90;;;;;;4997222;28;20021;-62
2021/05/19 00:50:58;;;;;;;30.75;22.42;;;7.70;99.90;;;;;;4991548;28;20102;-62
2021/05/19 00:53:24;;;;;;;28.52;19.38;;;7.60;99.90;;;;;;4993287;28;20033;-60
2021/05/19 00:55:50;;;;;;;35.30;17.83;;;7.50;99.90;;;;;;4950063;28;20041;-61
2021/05/19 00:58:15;;;;;;;25.35;17.20;;;7.40;99.90;;;;;;4994015;28;20137;-60
2021/05/19 01:00:41;;;;;;;23.15;17.25;;;7.20;99.90;;;;;;4997096;28;20039;-61
2021/05/19 01:03:07;;;;;;;24.73;19.50;;;7.20;99.90;;;;;;4999126;28;20033;-60
2021/05/19 01:10:47;;;;;;;27.67;20.88;;;6.90;99.90;;;;;;4988329;28;20403;-60
2021/05/19 01:13:14;;;;;;;31.33;22.95;;;6.90;99.90;;;;;;4992623;28;20026;-61
2021/05/19 01:15:40;;;;;;;30.98;23.20;;;6.90;99.90;;;;;;4990991;28;20038;-61
2021/05/19 01:18:06;;;;;;;30.98;22.30;;;6.80;99.90;;;;;;4992063;28;20030;-62
2021/05/19 01:20:33;;;;;;;29.17;20.73;;;6.80;99.90;;;;;;4990108;28;20036;-61
2021/05/19 01:23:00;;;;;;;69.65;21.65;;;6.70;99.90;;;;;;4988242;28;20042;-61
2021/05/19 01:25:25;;;;;;;56.50;18.63;;;6.70;99.90;;;;;;4990725;28;20022;-60
2021/05/19 01:27:57;;;;;;;120.50;17.95;;;6.70;99.90;;;;;;4990637;28;20161;-61
2021/05/19 01:30:24;;;;;;;225.68;21.20;;;6.70;99.90;;;;;;4991979;28;20611;-62
2021/05/19 01:32:50;;;;;;;205.43;19.23;;;6.70;99.90;;;;;;4991674;28;20065;-61
2021/05/19 01:35:16;;;;;;;75.15;18.00;;;6.60;99.90;;;;;;4992240;28;20399;-62
2021/05/19 01:37:44;;;;;;;24.67;17.90;;;6.60;99.90;;;;;;4991463;28;20124;-61
2021/05/19 01:40:12;;;;;;;24.80;16.90;;;6.60;99.90;;;;;;4993378;28;20030;-61
2021/05/19 01:42:38;;;;;;;27.00;19.08;;;6.50;99.90;;;;;;4991342;28;20102;-61
2021/05/19 01:45:05;;;;;;;41.22;19.90;;;6.50;99.90;;;;;;4991804;28;20168;-62
2021/05/19 01:47:46;;;;;;;54.53;20.10;;;6.50;99.90;;;;;;4991542;28;20535;-62
2021/05/19 01:50:34;;;;;;;29.23;21.55;;;6.50;99.90;;;;;;4982123;28;20022;-62
2021/05/19 01:53:03;;;;;;;30.63;21.05;;;6.50;99.90;;;;;;4991114;28;20496;-62
2021/05/19 01:55:29;;;;;;;37.22;22.02;;;6.50;99.90;;;;;;4991329;28;20035;-62
2021/05/19 01:57:55;;;;;;;31.35;21.85;;;6.60;99.90;;;;;;4995334;28;20034;-62
2021/05/19 02:00:25;;;;;;;29.25;19.92;;;6.60;99.90;;;;;;4987264;28;20029;-62
2021/05/19 02:02:59;;;;;;;185.52;25.27;;;6.70;99.90;;;;;;4994602;28;20030;-62
2021/05/19 02:05:27;;;;;;;118.22;22.70;;;6.70;99.90;;;;;;4990467;28;20037;-60
2021/05/19 02:07:54;;;;;;;135.65;23.95;;;6.70;99.90;;;;;;4993306;28;20034;-61
2021/05/19 02:10:20;;;;;;;96.35;24.10;;;6.70;99.90;;;;;;4995515;28;20050;-62
2021/05/19 02:12:46;;;;;;;65.97;23.33;;;6.80;99.90;;;;;;4994857;28;20092;-61
2021/05/19 02:15:13;;;;;;;48.85;24.10;;;6.80;99.90;;;;;;4995464;28;20065;-62
2021/05/19 02:17:38;;;;;;;38.97;24.50;;;6.90;99.90;;;;;;4989870;28;20042;-62
2021/05/19 02:20:09;;;;;;;40.35;23.08;;;6.90;99.90;;;;;;4994077;28;20023;-61
2021/05/19 02:22:35;;;;;;;48.65;23.25;;;6.90;99.90;;;;;;4988625;28;20129;-62
2021/05/19 02:25:01;;;;;;;44.63;23.02;;;7.00;99.90;;;;;;4995497;28;20097;-62
2021/05/19 02:27:27;;;;;;;42.28;20.95;;;7.00;99.90;;;;;;4991524;28;20139;-61
2021/05/19 02:29:54;;;;;;;38.42;21.80;;;7.00;99.90;;;;;;4989271;28;20042;-62
2021/05/19 02:32:20;;;;;;;29.27;21.55;;;7.10;99.90;;;;;;4991828;28;20036;-62
2021/05/19 02:34:46;;;;;;;26.90;19.70;;;7.10;99.90;;;;;;4997843;28;20040;-61
2021/05/19 02:37:12;;;;;;;29.92;20.00;;;7.20;99.90;;;;;;4992812;28;20034;-61
2021/05/19 02:39:37;;;;;;;23.95;18.17;;;7.10;99.90;;;;;;4990710;28;20034;-61
2021/05/19 02:42:03;;;;;;;29.25;18.17;;;7.10;99.90;;;;;;4993549;28;20109;-62
2021/05/19 02:44:28;;;;;;;29.15;19.55;;;7.20;99.90;;;;;;4991118;28;20058;-61
2021/05/19 02:46:54;;;;;;;21.83;16.70;;;7.20;99.90;;;;;;4992499;28;20022;-61
2021/05/19 02:49:20;;;;;;;22.38;16.67;;;7.30;99.90;;;;;;4997739;28;20030;-62
2021/05/19 02:51:45;;;;;;;71.53;18.98;;;7.30;99.90;;;;;;4990224;28;20057;-62
2021/05/19 02:54:11;;;;;;;45.17;19.85;;;7.30;99.90;;;;;;4994593;28;20105;-62
2021/05/19 02:56:36;;;;;;;32.33;17.50;;;7.30;99.90;;;;;;4991672;28;20126;-61
2021/05/19 02:59:03;;;;;;;24.92;18.08;;;7.30;99.90;;;;;;4993565;28;20061;-61
2021/05/19 03:01:29;;;;;;;24.13;17.58;;;7.30;99.90;;;;;;4990219;28;20026;-61
2021/05/19 03:03:54;;;;;;;23.58;18.27;;;7.30;99.90;;;;;;4993349;28;20053;-61
2021/05/19 03:06:22;;;;;;;21.70;16.70;;;7.30;99.90;;;;;;4994765;28;20026;-62
2021/05/19 03:08:47;;;;;;;20.52;16.67;;;7.30;99.90;;;;;;4988343;28;20018;-61
2021/05/19 03:11:13;;;;;;;27.30;17.88;;;7.40;99.90;;;;;;4994711;28;20053;-61
2021/05/19 03:13:39;;;;;;;24.50;18.00;;;7.40;99.90;;;;;;4990623;28;20088;-62
2021/05/19 03:16:05;;;;;;;25.42;18.40;;;7.30;99.90;;;;;;4994123;28;20415;-62
2021/05/19 03:18:30;;;;;;;21.85;16.95;;;7.40;99.90;;;;;;4990528;28;20022;-61
2021/05/19 03:20:56;;;;;;;22.20;16.92;;;7.40;99.90;;;;;;4992978;28;20027;-62
2021/05/19 03:23:22;;;;;;;22.85;18.60;;;7.40;99.90;;;;;;4993053;28;20072;-62
2021/05/19 03:25:47;;;;;;;22.45;17.70;;;7.40;99.90;;;;;;4990615;28;20503;-62
2021/05/19 03:28:13;;;;;;;23.40;18.58;;;7.40;99.90;;;;;;4992101;28;20166;-60
2021/05/19 03:30:39;;;;;;;22.75;19.02;;;7.40;99.90;;;;;;4989857;28;20019;-62
2021/05/19 03:33:05;;;;;;;25.05;18.85;;;7.50;99.90;;;;;;4994112;28;20026;-62
2021/05/19 03:35:31;;;;;;;29.75;19.17;;;7.50;99.90;;;;;;4997310;28;20057;-61
2021/05/19 03:37:57;;;;;;;24.52;19.15;;;7.50;99.90;;;;;;4993549;28;20120;-62
2021/05/19 03:40:23;;;;;;;25.60;20.83;;;7.50;99.90;;;;;;4994752;28;20065;-61
2021/05/19 03:42:48;;;;;;;28.50;21.05;;;7.60;99.90;;;;;;4991672;28;20115;-61
2021/05/19 03:45:17;;;;;;;28.77;20.30;;;7.50;99.90;;;;;;4994875;28;20097;-63
2021/05/19 03:47:45;;;;;;;25.63;19.95;;;7.50;99.90;;;;;;4997371;28;20129;-63
2021/05/19 03:50:11;;;;;;;28.98;21.88;;;7.50;99.90;;;;;;4992844;28;20046;-62
2021/05/19 03:52:37;;;;;;;29.88;22.67;;;7.40;99.90;;;;;;4996506;28;20077;-61
2021/05/19 03:55:05;;;;;;;29.27;21.55;;;7.40;99.90;;;;;;4998572;28;20112;-62
2021/05/19 03:57:30;;;;;;;30.30;22.90;;;7.40;99.90;;;;;;4995136;28;20109;-62
2021/05/19 03:59:56;;;;;;;36.30;23.42;;;7.40;99.90;;;;;;4993513;28;20145;-61
2021/05/19 04:02:22;;;;;;;35.50;21.67;;;7.40;99.90;;;;;;4989372;28;20101;-62
2021/05/19 04:04:47;;;;;;;34.25;22.70;;;7.50;99.90;;;;;;4998568;28;20468;-62
2021/05/19 04:07:14;;;;;;;30.38;22.42;;;7.50;99.90;;;;;;4994537;28;20049;-62
2021/05/19 04:09:40;;;;;;;28.20;22.58;;;7.50;99.90;;;;;;4997001;28;20026;-62
2021/05/19 04:12:06;;;;;;;24.15;19.50;;;7.50;99.90;;;;;;4993528;28;20033;-62
2021/05/19 04:14:31;;;;;;;24.20;19.50;;;7.50;99.90;;;;;;4999323;28;20030;-62
2021/05/19 04:16:57;;;;;;;26.38;19.58;;;7.60;99.90;;;;;;4996234;28;20045;-62
2021/05/19 04:19:22;;;;;;;23.50;18.85;;;7.60;99.90;;;;;;4996966;28;20030;-62
2021/05/19 04:21:48;;;;;;;21.73;17.65;;;7.60;99.90;;;;;;4996238;28;20034;-62
2021/05/19 04:24:14;;;;;;;21.48;17.98;;;7.60;99.90;;;;;;4997781;28;20034;-61
2021/05/19 04:26:39;;;;;;;23.77;18.58;;;7.60;99.90;;;;;;4995744;28;20495;-62
2021/05/19 04:29:05;;;;;;;20.60;16.48;;;7.70;99.90;;;;;;4996673;28;20026;-62
2021/05/19 04:31:31;;;;;;;40.65;15.25;;;7.70;99.90;;;;;;4996201;28;20092;-62
2021/05/19 04:33:58;;;;;;;14.98;12.70;;;7.70;99.90;;;;;;4994006;28;20045;-60
2021/05/19 04:36:23;;;;;;;62.40;15.48;;;7.70;99.90;;;;;;4993347;28;20033;-61
2021/05/19 04:38:49;;;;;;;240.25;20.08;;;7.80;99.90;;;;;;4996782;28;20039;-58
2021/05/19 04:41:15;;;;;;;275.38;21.42;;;7.70;99.90;;;;;;5001389;28;20104;-61
2021/05/19 04:43:40;;;;;;;267.42;22.40;;;7.70;99.90;;;;;;4993379;28;20153;-61
2021/05/19 04:46:06;;;;;;;41.95;15.65;;;7.70;99.90;;;;;;4975377;28;20749;-59
2021/05/19 04:48:32;;;;;;;194.15;20.23;;;7.70;99.90;;;;;;4997777;28;20488;-61
2021/05/19 04:50:58;;;;;;;65.93;16.63;;;7.70;99.90;;;;;;5003283;28;20368;-62
2021/05/19 04:53:23;;;;;;;17.77;14.60;;;7.70;99.90;;;;;;4997502;28;20030;-62
2021/05/19 04:55:49;;;;;;;17.63;14.48;;;7.80;99.90;;;;;;4994857;28;20152;-60
2021/05/19 04:58:15;;;;;;;19.38;15.60;;;7.80;99.90;;;;;;4999140;28;20066;-61
2021/05/19 05:00:40;;;;;;;16.52;14.50;;;8.00;99.90;;;;;;4998294;28;20513;-60
2021/05/19 05:03:08;;;;;;;16.10;14.05;;;8.10;99.90;;;;;;4998611;28;20034;-61
2021/05/19 05:05:33;;;;;;;14.65;12.60;;;8.20;99.90;;;;;;4998938;28;20092;-61
2021/05/19 05:07:59;;;;;;;17.70;12.85;;;8.30;99.90;;;;;;5001176;28;20026;-62
2021/05/19 05:10:25;;;;;;;14.05;12.40;;;8.40;99.90;;;;;;5002602;28;20030;-61
2021/05/19 05:12:50;;;;;;;14.82;13.00;;;8.60;99.90;;;;;;4992618;28;20041;-62
2021/05/19 05:15:18;;;;;;;14.85;12.52;;;8.80;99.90;;;;;;4992738;28;20041;-61
2021/05/19 05:17:44;;;;;;;15.07;13.23;;;9.10;99.90;;;;;;4992372;28;20587;-62
2021/05/19 05:20:10;;;;;;;14.98;11.40;;;9.20;99.90;;;;;;4992295;28;20121;-60
2021/05/19 05:22:37;;;;;;;13.35;11.95;;;9.40;99.90;;;;;;4960332;28;20081;-62
2021/05/19 05:25:05;;;;;;;11.10;10.00;;;9.60;99.90;;;;;;4991656;28;20030;-61
2021/05/19 05:27:30;;;;;;;10.73;9.10;;;10.00;99.90;;;;;;4991417;28;20110;-62
2021/05/19 05:29:56;;;;;;;10.73;8.90;;;10.40;99.90;;;;;;4991551;28;20102;-62
2021/05/19 05:32:22;;;;;;;9.90;8.77;;;10.60;99.90;;;;;;4987182;28;20027;-62
2021/05/19 05:34:47;;;;;;;13.90;8.23;;;10.80;99.90;;;;;;4991907;28;20061;-62
2021/05/19 05:37:13;;;;;;;9.07;7.60;;;10.90;99.90;;;;;;4992010;28;20558;-63
2021/05/19 05:39:39;;;;;;;8.23;7.43;;;11.20;99.90;;;;;;4994315;28;20037;-60
2021/05/19 05:42:06;;;;;;;7.45;6.75;;;12.10;99.90;;;;;;4988011;28;20039;-63
2021/05/19 05:44:31;;;;;;;6.60;5.80;;;13.00;99.90;;;;;;4994409;28;20109;-63
2021/05/19 05:46:58;;;;;;;7.53;6.40;;;14.10;99.90;;;;;;4995446;28;20519;-63
2021/05/19 05:49:24;;;;;;;6.25;5.65;;;15.50;99.90;;;;;;4992243;28;20361;-63
2021/05/19 05:51:49;;;;;;;10.80;6.25;;;15.90;99.90;;;;;;4992998;28;20034;-63
2021/05/19 05:54:15;;;;;;;6.25;5.65;;;17.10;99.90;;;;;;4989079;28;20038;-62
2021/05/19 05:56:41;;;;;;;6.22;5.63;;;17.80;99.90;;;;;;4992393;28;20519;-62
2021/05/19 05:59:08;;;;;;;6.50;5.90;;;18.20;99.70;;;;;;4991209;28;20531;-62
2021/05/19 06:01:34;;;;;;;8.40;5.50;;;18.50;99.90;;;;;;4996135;28;20045;-61
2021/05/19 06:04:00;;;;;;;6.53;5.85;;;19.40;98.70;;;;;;4994240;28;20117;-61
2021/05/19 06:06:26;;;;;;;5.18;3.90;;;20.00;97.00;;;;;;4994811;28;20454;-62
2021/05/19 06:08:51;;;;;;;5.47;4.97;;;20.70;94.20;;;;;;4994646;28;20093;-62
2021/05/19 06:11:17;;;;;;;5.38;4.60;;;20.10;95.10;;;;;;4993229;28;20034;-62
2021/05/19 06:13:42;;;;;;;5.50;4.78;;;18.80;96.30;;;;;;4994078;28;20054;-61
2021/05/19 06:16:08;;;;;;;7.93;4.90;;;17.70;98.80;;;;;;4998188;28;20048;-62
2021/05/19 06:18:34;;;;;;;8.02;5.65;;;16.50;99.90;;;;;;4990698;28;20034;-62
2021/05/19 06:20:59;;;;;;;5.97;5.20;;;16.20;99.90;;;;;;4994558;28;20554;-61
2021/05/19 06:23:25;;;;;;;7.00;5.80;;;16.30;99.90;;;;;;4976154;28;20517;-62
2021/05/19 06:25:51;;;;;;;6.75;6.05;;;16.30;99.90;;;;;;4996288;28;20076;-61
2021/05/19 06:28:16;;;;;;;6.85;5.70;;;16.40;99.90;;;;;;4991541;28;20115;-62
2021/05/19 06:30:42;;;;;;;6.15;5.00;;;17.10;99.90;;;;;;4996354;28;20450;-62
2021/05/19 06:33:07;;;;;;;10.32;4.30;;;17.90;99.90;;;;;;4990556;28;20065;-62
2021/05/19 06:35:33;;;;;;;6.90;4.28;;;18.90;98.10;;;;;;4995358;28;20425;-62
2021/05/19 06:37:58;;;;;;;7.45;4.15;;;19.00;95.00;;;;;;4993974;28;20034;-62
2021/05/19 06:40:24;;;;;;;6.57;4.20;;;18.80;95.90;;;;;;4995738;28;20076;-61
2021/05/19 06:42:50;;;;;;;7.43;4.97;;;18.40;95.90;;;;;;4991360;28;20101;-62
2021/05/19 06:45:16;;;;;;;12.63;4.90;;;17.60;97.80;;;;;;4995855;28;20014;-62
2021/05/19 06:47:42;;;;;;;7.57;4.97;;;16.80;99.30;;;;;;4998085;28;20490;-62
2021/05/19 06:50:08;;;;;;;7.95;5.07;;;16.20;99.90;;;;;;4994260;28;20033;-62
2021/05/19 06:52:34;;;;;;;9.55;5.30;;;16.10;99.90;;;;;;4996501;28;20034;-62
2021/05/19 06:55:05;;;;;;;15.07;5.75;;;15.40;99.90;;;;;;4993341;28;20026;-61
2021/05/19 06:57:32;;;;;;;8.70;5.60;;;14.70;99.90;;;;;;4996281;28;20029;-61
2021/05/19 06:59:57;;;;;;;11.52;6.40;;;14.90;99.90;;;;;;4992283;28;20487;-61
2021/05/19 07:02:23;;;;;;;9.27;6.45;;;15.70;99.90;;;;;;4995339;28;20037;-61
2021/05/19 07:04:48;;;;;;;9.68;5.97;;;15.20;99.90;;;;;;4992632;28;20026;-61
2021/05/19 07:07:14;;;;;;;8.40;5.30;;;15.60;99.90;;;;;;4990599;28;20056;-63
2021/05/19 07:09:40;;;;;;;12.82;5.53;;;17.00;99.90;;;;;;4992740;28;20503;-63
2021/05/19 07:12:06;;;;;;;12.30;6.32;;;18.20;98.20;;;;;;4992164;28;20101;-63
2021/05/19 07:14:35;;;;;;;11.70;5.47;;;19.20;96.80;;;;;;4994212;28;20031;-62
2021/05/19 07:17:00;;;;;;;9.38;4.72;;;20.50;93.10;;;;;;4992413;28;20049;-63
2021/05/19 07:19:26;;;;;;;8.93;5.07;;;20.80;90.80;;;;;;4993943;28;20559;-63
2021/05/19 07:21:52;;;;;;;13.57;5.53;;;21.20;87.20;;;;;;4991691;28;20022;-62
2021/05/19 07:24:18;;;;;;;8.48;5.10;;;22.10;86.60;;;;;;4975679;28;20068;-63
2021/05/19 07:26:46;;;;;;;8.55;5.20;;;22.20;77.40;;;;;;4996782;28;20026;-63
2021/05/19 07:29:13;;;;;;;8.48;4.97;;;22.60;76.80;;;;;;4992713;28;20081;-63
2021/05/19 07:31:40;;;;;;;8.02;4.07;;;23.40;75.70;;;;;;4996000;28;20037;-62
2021/05/19 07:34:06;;;;;;;10.77;3.97;;;23.10;72.10;;;;;;4992141;28;20027;-63
2021/05/19 07:36:32;;;;;;;10.63;4.20;;;23.30;67.70;;;;;;4994797;28;20018;-63
2021/05/19 07:38:58;;;;;;;14.57;4.20;;;23.00;67.50;;;;;;4991341;28;20026;-63
2021/05/19 07:41:24;;;;;;;10.23;4.75;;;23.10;71.90;;;;;;4990495;28;20449;-64
2021/05/19 07:43:51;;;;;;;12.52;4.47;;;23.10;67.70;;;;;;4991281;28;20545;-62
2021/05/19 07:46:17;;;;;;;12.00;4.03;;;23.10;66.00;;;;;;4988579;28;20030;-64
2021/05/19 07:48:43;;;;;;;8.95;4.25;;;23.40;67.00;;;;;;4990824;28;20104;-63
2021/05/19 07:51:09;;;;;;;11.60;4.30;;;22.50;63.90;;;;;;4988432;28;20499;-63
2021/05/19 07:53:34;;;;;;;7.57;3.60;;;22.00;66.30;;;;;;4989557;28;20073;-63
2021/05/19 07:58:39;;;;;;;10.70;3.90;;;20.90;69.90;;;;;;4989871;28;20053;-63
2021/05/19 08:01:24;;;;;;;6.45;3.28;;;20.40;71.80;;;;;;4989143;28;20504;-62
2021/05/19 08:03:51;;;;;;;9.93;3.03;;;20.20;72.80;;;;;;4991491;28;20126;-63
2021/05/19 08:06:17;;;;;;;12.32;3.00;;;20.90;70.80;;;;;;4992296;28;20042;-63
2021/05/19 08:08:43;;;;;;;8.15;3.05;;;21.60;68.40;;;;;;4993283;28;20408;-63
2021/05/19 08:11:09;;;;;;;13.05;4.10;;;21.60;66.00;;;;;;4990076;28;20023;-63
2021/05/19 08:13:39;;;;;;;6.80;3.15;;;20.70;70.30;;;;;;4985878;28;20384;-62
2021/05/19 08:16:06;;;;;;;9.07;3.03;;;20.80;69.10;;;;;;4993528;28;20023;-63
2021/05/19 08:18:31;;;;;;;9.98;3.60;;;21.10;68.20;;;;;;4991927;28;20018;-62
2021/05/19 08:20:57;;;;;;;6.07;2.45;;;20.60;67.60;;;;;;4991596;28;20394;-63
2021/05/19 08:23:22;;;;;;;10.95;3.45;;;20.90;69.20;;;;;;4973758;28;20046;-64
2021/05/19 08:25:48;;;;;;;9.40;3.17;;;21.00;67.70;;;;;;4988408;28;20400;-62
2021/05/19 08:28:13;;;;;;;9.77;3.15;;;20.80;69.30;;;;;;4990197;28;20098;-62
2021/05/19 08:30:39;;;;;;;7.13;2.63;;;20.80;67.70;;;;;;4993577;28;20442;-62
2021/05/19 08:33:05;;;;;;;11.38;2.70;;;21.10;70.10;;;;;;4992721;28;20087;-62
2021/05/19 08:35:30;;;;;;;7.03;3.00;;;21.20;68.60;;;;;;4993193;28;20034;-62
2021/05/19 08:37:56;;;;;;;8.32;3.40;;;20.80;69.20;;;;;;4995022;28;20838;-62
2021/05/19 08:40:22;;;;;;;10.20;3.15;;;21.10;66.20;;;;;;4991745;28;20023;-62
2021/05/19 08:42:48;;;;;;;9.88;3.50;;;21.30;65.80;;;;;;4995083;28;20069;-62
2021/05/19 08:45:15;;;;;;;6.75;2.63;;;21.40;67.30;;;;;;4991059;28;20106;-61
2021/05/19 08:47:42;;;;;;;9.57;2.80;;;22.10;63.50;;;;;;4993931;28;20411;-62
2021/05/19 08:50:10;;;;;;;4.75;2.10;;;21.30;65.10;;;;;;4991149;28;20110;-62
2021/05/19 08:52:41;;;;;;;5.50;2.53;;;21.10;66.50;;;;;;4992171;28;20035;-62
2021/05/19 08:55:14;;;;;;;4.82;2.28;;;20.80;68.10;;;;;;4990560;28;20519;-62
2021/05/19 08:57:41;;;;;;;8.57;2.72;;;20.90;68.90;;;;;;4992408;28;20492;-62
2021/05/19 09:00:09;;;;;;;9.02;2.42;;;20.60;68.40;;;;;;4993531;28;20022;-62
2021/05/19 09:02:35;;;;;;;5.43;1.95;;;20.10;70.60;;;;;;4994727;28;20038;-62
2021/05/19 09:05:01;;;;;;;8.00;2.53;;;20.20;70.50;;;;;;4999522;28;20038;-62
2021/05/19 09:07:27;;;;;;;7.07;2.47;;;20.20;71.00;;;;;;4996913;28;20030;-61
2021/05/19 09:09:52;;;;;;;7.65;2.30;;;19.50;70.00;;;;;;4994261;28;20029;-62
2021/05/19 09:12:19;;;;;;;6.47;2.88;;;19.30;70.80;;;;;;5003373;28;20017;-62
2021/05/19 09:14:51;;;;;;;6.75;2.35;;;18.90;73.30;;;;;;4998351;28;20078;-60
2021/05/19 09:17:19;;;;;;;13.57;3.60;;;18.40;77.40;;;;;;4996977;28;20109;-62
2021/05/19 09:19:47;;;;;;;6.93;2.60;;;17.90;77.50;;;;;;5000922;28;20034;-60
2021/05/19 09:22:20;;;;;;;7.80;2.65;;;17.60;80.60;;;;;;5003920;28;20153;-62
2021/05/19 09:24:46;;;;;;;7.50;3.08;;;16.90;83.90;;;;;;4982359;28;20076;-61
2021/05/19 09:27:11;;;;;;;5.07;2.13;;;17.00;88.50;;;;;;4994903;28;20412;-62
2021/05/19 09:29:39;;;;;;;6.57;2.25;;;17.00;92.10;;;;;;5000886;28;20045;-62
2021/05/19 09:32:12;;;;;;;8.70;2.42;;;16.40;92.60;;;;;;5002137;28;20029;-61
2021/05/19 09:34:39;;;;;;;7.50;3.20;;;16.10;91.80;;;;;;5000503;28;20369;-61
2021/05/19 09:37:11;;;;;;;8.00;2.90;;;15.90;94.60;;;;;;4997097;28;20037;-61
2021/05/19 09:39:48;;;;;;;5.57;2.38;;;15.80;96.60;;;;;;4995578;28;20496;-61
2021/05/19 09:42:14;;;;;;;9.98;2.63;;;15.80;98.00;;;;;;4991743;28;20561;-61
2021/05/19 09:44:40;;;;;;;12.00;3.08;;;15.90;96.80;;;;;;4990528;28;20030;-62
2021/05/19 09:47:06;;;;;;;5.13;2.60;;;16.20;98.40;;;;;;4992389;28;20033;-61
2021/05/19 09:49:31;;;;;;;6.95;2.15;;;16.50;93.60;;;;;;4990525;28;20026;-61
2021/05/19 09:52:07;;;;;;;6.57;2.08;;;16.80;95.60;;;;;;4990771;28;20026;-61
2021/05/19 09:54:35;;;;;;;6.82;2.50;;;17.30;93.80;;;;;;4987758;28;20030;-62
2021/05/19 09:57:02;;;;;;;6.60;2.05;;;17.90;91.20;;;;;;4985472;28;20030;-62
2021/05/19 09:59:29;;;;;;;5.18;1.65;;;18.20;91.80;;;;;;4990562;28;20500;-61
2021/05/19 10:01:55;;;;;;;6.45;1.80;;;19.40;87.00;;;;;;4988035;28;20053;-62
2021/05/19 10:04:25;;;;;;;8.27;2.38;;;19.80;83.60;;;;;;4995477;28;20494;-61
2021/05/19 10:06:51;;;;;;;6.35;2.05;;;19.70;82.10;;;;;;5002126;28;20164;-61
2021/05/19 10:09:17;;;;;;;6.43;1.90;;;19.40;83.40;;;;;;4999280;28;20290;-62
2021/05/19 10:11:44;;;;;;;3.75;1.42;;;19.10;79.70;;;;;;4997270;28;20053;-62
2021/05/19 10:14:13;;;;;;;5.50;1.65;;;18.50;83.30;;;;;;5001174;28;20399;-62
2021/05/19 10:16:42;;;;;;;3.65;1.30;;;18.10;85.40;;;;;;4996727;28;20049;-62
2021/05/19 10:19:11;;;;;;;4.90;1.80;;;17.50;87.00;;;;;;4995295;28;20084;-62
2021/05/19 10:21:37;;;;;;;7.07;2.28;;;17.60;90.50;;;;;;5000654;28;20031;-62
2021/05/19 10:24:06;;;;;;;5.97;1.77;;;17.70;89.30;;;;;;5001371;28;21736;-61
2021/05/19 10:26:52;;;;;;;7.35;2.08;;;18.20;87.90;;;;;;4999829;28;20014;-62
2021/05/19 10:29:50;;;;;;;11.63;1.63;;;19.00;87.40;;;;;;4975366;28;20065;-61
2021/05/19 10:32:30;;;;;;;7.70;1.55;;;19.60;79.10;;;;;;4995886;28;20068;-61
2021/05/19 10:34:58;;;;;;;3.90;1.70;;;19.80;80.70;;;;;;4999978;28;20117;-59
2021/05/19 10:37:26;;;;;;;6.07;2.10;;;19.70;73.60;;;;;;4994357;28;20026;-60
2021/05/19 10:40:07;;;;;;;6.53;1.85;;;19.90;82.20;;;;;;5003436;28;20057;-62
2021/05/19 10:42:42;;;;;;;7.45;1.67;;;19.90;79.90;;;;;;5002907;28;20042;-62
2021/05/19 10:45:14;;;;;;;5.25;1.40;;;19.50;75.50;;;;;;4995688;28;20391;-62
2021/05/19 10:47:40;;;;;;;5.63;1.67;;;19.10;76.30;;;;;;4993503;28;20026;-61
2021/05/19 10:50:26;;;;;;;4.00;1.45;;;19.10;79.30;;;;;;5000109;28;20041;-62
2021/05/19 10:58:43;;;;;;;5.07;1.10;;;19.80;80.10;;;;;;4989928;28;20045;-62
2021/05/19 11:01:11;;;;;;;4.55;1.70;;;20.00;79.00;;;;;;4990092;28;20046;-63
2021/05/19 11:03:38;;;;;;;3.47;0.98;;;20.50;71.50;;;;;;4988831;28;20068;-61
2021/05/19 11:06:08;;;;;;;5.47;1.40;;;20.70;74.30;;;;;;4990112;28;20034;-61
2021/05/19 11:08:35;;;;;;;4.00;1.20;;;20.20;77.80;;;;;;4988954;28;20484;-61
2021/05/19 11:11:29;;;;;;;4.25;1.00;;;19.70;73.70;;;;;;4989813;28;20041;-61
2021/05/19 11:14:11;;;;;;;3.92;1.02;;;19.30;73.10;;;;;;4987908;28;20030;-62
2021/05/19 11:17:02;;;;;;;3.40;0.80;;;18.90;75.20;;;;;;4990430;28;20030;-62
2021/05/19 11:19:33;;;;;;;3.13;1.45;;;18.80;77.10;;;;;;4986531;28;20030;-62
2021/05/19 11:22:02;;;;;;;4.90;1.10;;;18.40;77.60;;;;;;4986695;28;20022;-62
2021/05/19 11:24:28;;;;;;;4.75;0.90;;;18.60;79.30;;;;;;4989038;28;20026;-61
2021/05/19 11:26:54;;;;;;;2.67;1.02;;;18.90;79.90;;;;;;4989864;28;20451;-62
2021/05/19 11:29:20;;;;;;;6.10;1.63;;;18.70;79.00;;;;;;4970733;28;20066;-62
2021/05/19 11:31:48;;;;;;;2.47;1.10;;;18.90;79.00;;;;;;4988680;28;20495;-62
2021/05/19 11:34:16;;;;;;;5.53;1.48;;;18.90;78.50;;;;;;4989058;28;20105;-62
2021/05/19 11:36:57;;;;;;;3.55;1.00;;;18.90;77.90;;;;;;4988028;28;20038;-60
2021/05/19 11:39:30;;;;;;;7.53;1.27;;;18.90;76.10;;;;;;4993403;28;20052;-62
2021/05/19 11:42:23;;;;;;;5.35;1.33;;;18.60;77.40;;;;;;4999996;28;20045;-61
2021/05/19 11:45:06;;;;;;;6.65;1.10;;;18.40;79.90;;;;;;4986640;28;20476;-63
2021/05/19 11:47:31;;;;;;;4.95;1.48;;;18.00;78.30;;;;;;4992086;28;20022;-61
2021/05/19 11:50:16;;;;;;;6.03;1.33;;;17.70;82.60;;;;;;4989758;28;20502;-61
2021/05/19 11:52:52;;;;;;;4.72;1.30;;;16.80;92.40;;;;;;4993134;28;20033;-61
2021/05/19 11:55:24;;;;;;;13.68;2.38;;;15.40;99.90;;;;;;4989587;28;20072;-60
2021/05/19 11:57:49;;;;;;;3.85;1.33;;;14.70;99.90;;;;;;4992665;28;20542;-61
2021/05/19 12:00:15;;;;;;;4.07;1.00;;;14.20;99.90;;;;;;4989896;28;20084;-61
2021/05/19 12:02:54;;;;;;;3.10;0.73;;;14.20;99.90;;;;;;4992613;28;20049;-61
2021/05/19 12:05:20;;;;;;;2.22;0.90;;;14.10;99.90;;;;;;4990629;28;20026;-61
2021/05/19 12:07:46;;;;;;;4.22;1.23;;;13.80;99.90;;;;;;4991580;28;20040;-60
2021/05/19 12:10:12;;;;;;;6.22;1.13;;;14.10;99.90;;;;;;4989020;28;20038;-61
2021/05/19 12:12:38;;;;;;;3.38;1.00;;;14.60;99.90;;;;;;4991556;28;20423;-61
2021/05/19 12:15:04;;;;;;;5.22;1.52;;;15.00;99.90;;;;;;4989890;28;20102;-61
2021/05/19 12:17:31;;;;;;;3.58;0.95;;;15.40;99.90;;;;;;4989180;28;20053;-61
2021/05/19 12:19:57;;;;;;;3.60;1.13;;;15.70;99.90;;;;;;4993992;28;20031;-60
2021/05/19 12:22:24;;;;;;;8.68;1.73;;;16.00;99.90;;;;;;4988688;28;20026;-62
2021/05/19 12:24:52;;;;;;;2.00;1.10;;;16.50;99.90;;;;;;4986536;28;20121;-61
2021/05/19 12:27:21;;;;;;;3.83;1.27;;;16.70;99.90;;;;;;4995716;28;20030;-61
2021/05/19 12:29:51;;;;;;;3.50;1.52;;;16.40;99.90;;;;;;4973316;28;20062;-62
2021/05/19 12:32:27;;;;;;;3.47;1.40;;;16.80;99.90;;;;;;4987766;28;20022;-61
2021/05/19 12:35:06;;;;;;;2.72;1.15;;;16.20;99.90;;;;;;4992856;28;20595;-60
2021/05/19 12:37:43;;;;;;;3.47;1.10;;;16.20;99.90;;;;;;4993115;28;20100;-60
2021/05/19 12:40:14;;;;;;;2.30;1.30;;;16.20;99.90;;;;;;4998468;28;20073;-60
2021/05/19 12:42:51;;;;;;;4.68;1.13;;;16.40;99.90;;;;;;4996070;28;20061;-60
2021/05/19 12:45:33;;;;;;;9.13;1.00;;;16.10;99.90;;;;;;4993176;28;20022;-59
2021/05/19 12:48:15;;;;;;;3.90;1.00;;;16.10;99.90;;;;;;4992006;28;20026;-60
2021/05/19 12:50:48;;;;;;;8.00;1.50;;;16.20;99.90;;;;;;4993402;28;20023;-60
2021/05/19 12:53:41;;;;;;;2.53;1.20;;;16.40;99.90;;;;;;4992953;28;20026;-60
2021/05/19 12:56:16;;;;;;;5.32;1.30;;;16.40;99.90;;;;;;4993845;28;20633;-60
2021/05/19 12:58:59;;;;;;;4.72;1.38;;;16.50;99.90;;;;;;4992450;28;20038;-61